< < Back
Terminal Aerodrome Forecast


Current Version              Previous Versions:   1  2  3  4  5  6  7  8  9  

Terminal Aerodrome Forecast

249
FTUS44 KOHX 282300
TAFBNA
TAF
KBNA 282333Z 2900/2924 33008G16KT P6SM SCT060 BKN080
     FM290100 35006KT P6SM SKC
     FM291500 36010KT P6SM SCT050=



Latest METAR

402
SAUS70 KWBC 291256
MTRBNA
METAR KBNA 291253Z 36011KT 10SM CLR 18/10 A3010 RMK AO2 SLP186
T01830100


USA.gov is the U.S. government's official web portal to all federal, state and local government web resources and services.